Time;durP1;ratioP1;P1;durP2;ratioP2;P2;SDS_P1;SDS_P2;PMS_P1;PMS_P2;Temp;Humidity;BMP_temperature;BMP_pressure;BME280_temperature;BME280_humidity;BME280_pressure;Samples;Min_cycle;Max_cycle;Signal;HPM_P1;HPM_P2
2022/08/02 00:03:25;;;;;;;3.40;3.10;;;;;19.80;96534.00;;;;8332477;28;20224;-69
2022/08/02 00:07:30;;;;;;;4.70;3.08;;;;;19.90;96526.00;;;;8331618;28;20308;-70
2022/08/02 00:11:33;;;;;;;3.50;2.97;;;;;20.00;96527.00;;;;8331922;28;20248;-70
2022/08/02 00:16:10;;;;;;;6.22;2.95;;;;;20.00;96512.00;;;;8332579;28;20309;-69
2022/08/02 00:20:18;;;;;;;4.07;3.15;;;;;20.00;96517.00;;;;8330968;28;20236;-70
2022/08/02 00:24:57;;;;;;;4.68;2.90;;;;;19.90;96517.00;;;;8330946;28;20308;-69
2022/08/02 00:29:00;;;;;;;3.00;2.70;;;;;19.90;96522.00;;;;8331533;28;20292;-71
2022/08/02 00:33:04;;;;;;;3.40;3.10;;;;;19.80;96516.00;;;;8330817;28;20304;-71
2022/08/02 00:37:07;;;;;;;3.08;2.88;;;;;19.90;96511.00;;;;8331313;28;20223;-70
2022/08/02 00:41:44;;;;;;;6.45;3.15;;;;;19.80;96513.00;;;;8331030;28;20565;-70
2022/08/02 00:45:48;;;;;;;4.80;3.10;;;;;19.70;96515.00;;;;8330426;28;20583;-71
2022/08/02 00:50:06;;;;;;;5.32;3.60;;;;;19.70;96515.00;;;;8330669;28;20240;-71
2022/08/02 00:54:40;;;;;;;3.25;2.95;;;;;19.70;96520.00;;;;8331155;28;20300;-71
2022/08/02 00:58:43;;;;;;;2.72;2.53;;;;;19.60;96517.00;;;;8329605;28;20225;-70
2022/08/02 01:03:18;;;;;;;7.53;2.90;;;;;19.60;96520.00;;;;8330046;28;20586;-70
2022/08/02 01:07:22;;;;;;;3.55;2.83;;;;;19.50;96511.00;;;;8330164;28;20630;-70
2022/08/02 01:11:59;;;;;;;3.55;3.03;;;;;19.40;96514.00;;;;8330287;28;20312;-70
2022/08/02 01:16:11;;;;;;;3.20;3.00;;;;;19.30;96506.00;;;;8329562;28;20516;-70
2022/08/02 01:20:49;;;;;;;3.78;3.05;;;;;19.30;96500.00;;;;8330490;28;20217;-70
2022/08/02 01:25:07;;;;;;;2.97;2.78;;;;;19.20;96505.00;;;;8329000;28;20296;-70
2022/08/02 01:29:17;;;;;;;3.28;2.97;;;;;19.00;96488.00;;;;8329613;28;20304;-70
2022/08/02 01:33:23;;;;;;;4.35;3.20;;;;;18.90;96499.00;;;;8329737;28;20308;-71
2022/08/02 01:37:58;;;;;;;3.33;3.13;;;;;18.70;96505.00;;;;8329214;28;20341;-70
2022/08/02 01:42:03;;;;;;;3.53;3.22;;;;;18.50;96497.00;;;;8328275;28;20810;-71
2022/08/02 01:46:39;;;;;;;3.63;3.33;;;;;18.30;96495.00;;;;8329445;28;20328;-70
2022/08/02 01:50:44;;;;;;;6.60;3.55;;;;;18.30;96489.00;;;;8328238;28;20225;-70
2022/08/02 01:55:20;;;;;;;3.83;3.20;;;;;18.20;96490.00;;;;8328909;28;20245;-70
2022/08/02 01:59:37;;;;;;;3.38;3.08;;;;;18.10;96485.00;;;;8328865;28;20219;-70
2022/08/02 02:03:44;;;;;;;4.45;3.38;;;;;18.10;96497.00;;;;8327651;28;20312;-70
2022/08/02 02:07:50;;;;;;;3.80;2.97;;;;;18.10;96495.00;;;;8327553;28;20228;-70
2022/08/02 02:12:24;;;;;;;3.70;3.13;;;;;18.00;96500.00;;;;8328113;28;20223;-70
2022/08/02 02:16:29;;;;;;;3.78;3.35;;;;;17.90;96499.00;;;;8327466;28;20245;-70
2022/08/02 02:21:04;;;;;;;3.53;3.08;;;;;17.80;96500.00;;;;8327881;28;20249;-70
2022/08/02 02:25:09;;;;;;;4.72;3.17;;;;;17.80;96495.00;;;;8326924;28;20314;-69
2022/08/02 02:29:14;;;;;;;4.32;3.20;;;;;17.70;96495.00;;;;8327633;28;20246;-70
2022/08/02 02:33:18;;;;;;;3.28;3.08;;;;;17.70;96496.00;;;;8326811;28;20256;-69
2022/08/02 02:37:52;;;;;;;4.95;3.72;;;;;17.60;96515.00;;;;8327742;28;20225;-70
2022/08/02 02:42:32;;;;;;;3.53;3.22;;;;;17.50;96520.00;;;;8326920;28;20251;-70
2022/08/02 02:46:36;;;;;;;4.05;3.55;;;;;17.40;96527.00;;;;8327535;28;20304;-70
2022/08/02 02:50:42;;;;;;;6.43;3.53;;;;;17.40;96520.00;;;;8327403;28;20308;-70
2022/08/02 02:55:17;;;;;;;3.67;3.28;;;;;17.40;96517.00;;;;8327045;28;20227;-70
2022/08/02 02:59:22;;;;;;;4.20;3.50;;;;;17.30;96527.00;;;;8326548;28;20210;-69
2022/08/02 03:03:26;;;;;;;6.20;3.78;;;;;17.20;96527.00;;;;8375987;22;20223;-71
2022/08/02 03:07:29;;;;;;;4.63;3.90;;;;;17.20;96542.00;;;;8372316;28;20238;-71
2022/08/02 03:11:33;;;;;;;4.53;3.17;;;;;17.20;96535.00;;;;8367779;28;20227;-70
2022/08/02 03:15:39;;;;;;;5.20;3.88;;;;;17.20;96540.00;;;;8380953;28;20220;-70
2022/08/02 03:19:42;;;;;;;4.93;4.00;;;;;17.20;96538.00;;;;8381492;28;20302;-71
2022/08/02 03:23:46;;;;;;;4.00;3.53;;;;;17.10;96540.00;;;;8379327;28;20317;-70
2022/08/02 03:27:49;;;;;;;5.38;3.90;;;;;17.10;96539.00;;;;8382011;28;20253;-69
2022/08/02 03:31:54;;;;;;;3.92;3.45;;;;;17.10;96545.00;;;;8377406;28;20212;-70
2022/08/02 03:36:01;;;;;;;3.72;3.30;;;;;17.10;96549.00;;;;8379851;28;20224;-70
2022/08/02 03:40:08;;;;;;;5.18;3.90;;;;;17.00;96560.00;;;;8383683;28;20220;-72
2022/08/02 03:44:12;;;;;;;4.10;3.70;;;;;17.00;96557.00;;;;8383647;28;20692;-68
2022/08/02 03:48:18;;;;;;;3.80;3.50;;;;;17.00;96553.00;;;;8381593;28;20227;-68
2022/08/02 03:52:41;;;;;;;5.32;3.45;;;;;17.00;96552.00;;;;8375407;28;20220;-70
2022/08/02 03:56:45;;;;;;;8.50;3.28;;;;;17.10;96551.00;;;;8361728;28;20646;-72
2022/08/02 04:00:49;;;;;;;4.65;4.10;;;;;17.10;96552.00;;;;8382223;28;20645;-71
2022/08/02 04:04:54;;;;;;;8.75;3.65;;;;;17.00;96547.00;;;;8381751;28;20312;-70
2022/08/02 04:08:57;;;;;;;4.68;4.10;;;;;17.00;96544.00;;;;8379952;28;20306;-71
2022/08/02 04:13:00;;;;;;;5.45;4.07;;;;;17.00;96551.00;;;;8382418;28;20228;-73
2022/08/02 04:17:08;;;;;;;8.05;4.00;;;;;17.00;96555.00;;;;8384575;28;20216;-72
2022/08/02 04:21:17;;;;;;;6.10;3.88;;;;;17.00;96542.00;;;;8380774;28;20250;-72
2022/08/02 04:25:21;;;;;;;5.28;3.97;;;;;17.10;96545.00;;;;8374983;28;20298;-70
2022/08/02 04:29:38;;;;;;;4.18;3.75;;;;;17.10;96547.00;;;;8383722;28;20673;-70
2022/08/02 04:33:47;;;;;;;5.28;4.55;;;;;17.10;96548.00;;;;8375849;28;20907;-71
2022/08/02 04:37:53;;;;;;;5.68;3.72;;;;;17.20;96542.00;;;;8382028;28;20228;-72
2022/08/02 04:42:21;;;;;;;6.40;4.07;;;;;17.40;96554.00;;;;8387188;28;20216;-71
2022/08/02 04:46:24;;;;;;;4.82;4.20;;;;;17.50;96576.00;;;;8387504;28;20220;-70
2022/08/02 04:50:28;;;;;;;7.97;4.80;;;;;17.70;96575.00;;;;8387057;28;20232;-70
2022/08/02 04:54:32;;;;;;;4.43;3.35;;;;;17.90;96586.00;;;;8393936;28;20227;-66
2022/08/02 04:58:36;;;;;;;7.30;4.30;;;;;18.10;96586.00;;;;8400780;28;20314;-66
2022/08/02 05:02:42;;;;;;;5.25;4.25;;;;;18.30;96591.00;;;;8395074;28;20267;-72
2022/08/02 05:06:45;;;;;;;9.52;4.43;;;;;18.50;96588.00;;;;8407023;28;20333;-72
2022/08/02 05:10:50;;;;;;;6.47;3.83;;;;;18.80;96590.00;;;;8405024;28;20225;-73
2022/08/02 05:14:53;;;;;;;4.30;3.90;;;;;19.10;96595.00;;;;8401812;28;20257;-73
2022/08/02 05:18:57;;;;;;;4.10;3.70;;;;;19.40;96597.00;;;;8398185;28;20233;-75
2022/08/02 05:23:00;;;;;;;3.97;3.63;;;;;19.70;96598.00;;;;8397852;28;20314;-74
2022/08/02 05:27:05;;;;;;;5.82;3.67;;;;;20.00;96592.00;;;;8407187;28;20223;-74
2022/08/02 05:31:23;;;;;;;4.00;3.45;;;;;20.20;96588.00;;;;8407125;28;20240;-73
2022/08/02 05:35:27;;;;;;;4.25;3.85;;;;;20.50;96603.00;;;;8396724;28;20306;-73
2022/08/02 05:39:30;;;;;;;4.63;3.40;;;;;20.80;96595.00;;;;8393416;28;20223;-73
2022/08/02 05:43:35;;;;;;;3.65;3.35;;;;;21.10;96594.00;;;;8382716;28;20886;-73
2022/08/02 05:47:39;;;;;;;4.55;3.33;;;;;21.40;96598.00;;;;8395760;28;20692;-72
2022/08/02 05:51:50;;;;;;;3.55;3.25;;;;;21.60;96595.00;;;;8396102;28;20766;-73
2022/08/02 05:56:02;;;;;;;3.97;3.25;;;;;21.80;96595.00;;;;8391894;28;20228;-72
2022/08/02 06:00:13;;;;;;;3.50;2.85;;;;;22.00;96593.00;;;;8389101;28;21424;-73
2022/08/02 06:04:25;;;;;;;5.30;3.10;;;;;22.10;96600.00;;;;8383830;28;20771;-73
2022/08/02 06:08:32;;;;;;;4.00;3.33;;;;;22.20;96596.00;;;;8398975;28;20257;-73
2022/08/02 06:12:43;;;;;;;2.75;2.55;;;;;22.40;96603.00;;;;8395205;28;20241;-74
2022/08/02 06:16:49;;;;;;;5.43;2.90;;;;;22.70;96604.00;;;;8400504;28;20296;-72
2022/08/02 06:20:56;;;;;;;3.17;2.83;;;;;22.90;96608.00;;;;8397709;28;20568;-73
2022/08/02 06:25:01;;;;;;;4.13;2.92;;;;;23.20;96623.00;;;;8397470;28;20223;-73
2022/08/02 06:29:05;;;;;;;6.15;2.97;;;;;23.40;96621.00;;;;8390884;28;20303;-74
2022/08/02 06:33:11;;;;;;;2.95;2.75;;;;;23.60;96614.00;;;;8398203;28;20247;-73
2022/08/02 06:37:23;;;;;;;6.22;2.60;;;;;24.00;96620.00;;;;8394479;28;20233;-73
2022/08/02 06:41:31;;;;;;;5.75;2.70;;;;;24.50;96615.00;;;;8399163;28;20318;-72
2022/08/02 06:45:35;;;;;;;2.97;2.70;;;;;25.00;96626.00;;;;8404292;28;20613;-73
2022/08/02 06:49:40;;;;;;;2.55;2.33;;;;;25.50;96618.00;;;;8398501;28;20241;-73
2022/08/02 06:53:55;;;;;;;2.70;2.50;;;;;26.00;96613.00;;;;8397450;28;20699;-72
2022/08/02 06:57:59;;;;;;;4.88;2.70;;;;;26.50;96617.00;;;;8403388;28;20246;-73
2022/08/02 07:02:02;;;;;;;4.00;2.42;;;;;27.10;96615.00;;;;8400842;28;20223;-73
2022/08/02 07:06:08;;;;;;;2.90;2.40;;;;;27.50;96616.00;;;;8380337;28;20569;-73
2022/08/02 07:10:13;;;;;;;3.72;3.42;;;;;28.00;96621.00;;;;8397203;28;20311;-73
2022/08/02 07:14:16;;;;;;;3.85;3.55;;;;;28.30;96621.00;;;;8411756;28;20216;-73
2022/08/02 07:18:19;;;;;;;5.53;2.80;;;;;28.30;96615.00;;;;8413583;28;20318;-73
2022/08/02 07:22:25;;;;;;;5.45;2.90;;;;;28.70;96627.00;;;;8411693;28;20245;-73
2022/08/02 07:26:29;;;;;;;2.75;2.33;;;;;29.20;96624.00;;;;8412167;28;20250;-73
2022/08/02 07:30:33;;;;;;;3.08;2.40;;;;;29.80;96628.00;;;;8407804;28;20310;-73
2022/08/02 07:34:36;;;;;;;4.50;2.50;;;;;30.40;96629.00;;;;8402205;28;20226;-73
2022/08/02 07:38:40;;;;;;;3.47;2.60;;;;;30.80;96632.00;;;;8414155;28;20223;-74
2022/08/02 07:42:44;;;;;;;2.60;2.33;;;;;31.40;96622.00;;;;8413603;28;20223;-74
2022/08/02 07:46:47;;;;;;;2.20;2.08;;;;;31.80;96629.00;;;;8409560;28;20903;-73
2022/08/02 07:50:50;;;;;;;3.78;2.50;;;;;32.10;96626.00;;;;8414387;28;20219;-73
2022/08/02 07:54:55;;;;;;;3.70;2.38;;;;;32.40;96616.00;;;;8412815;28;20231;-73
2022/08/02 07:58:58;;;;;;;2.55;2.45;;;;;32.80;96611.00;;;;8411372;28;20718;-74
2022/08/02 08:03:01;;;;;;;5.55;2.67;;;;;33.20;96609.00;;;;8377116;28;20228;-72
2022/08/02 08:07:06;;;;;;;2.30;2.10;;;;;33.40;96607.00;;;;8376465;28;20249;-72
2022/08/02 08:11:11;;;;;;;2.30;2.20;;;;;33.30;96605.00;;;;8377562;28;20258;-72
2022/08/02 08:15:14;;;;;;;4.47;2.25;;;;;33.10;96598.00;;;;8387242;28;20224;-73
2022/08/02 08:19:17;;;;;;;2.30;2.17;;;;;32.80;96603.00;;;;8387612;28;20223;-68
2022/08/02 08:23:20;;;;;;;4.13;2.22;;;;;32.70;96600.00;;;;8379271;28;20484;-68
2022/08/02 08:27:25;;;;;;;2.88;2.05;;;;;32.60;96605.00;;;;8393151;28;20231;-68
2022/08/02 08:31:28;;;;;;;2.72;2.20;;;;;32.80;96603.00;;;;8391611;28;20223;-68
2022/08/02 08:35:31;;;;;;;4.18;2.10;;;;;33.30;96614.00;;;;8390448;28;20219;-68
2022/08/02 08:39:34;;;;;;;3.78;2.10;;;;;33.90;96608.00;;;;8369545;28;20227;-67
2022/08/02 08:43:59;;;;;;;2.45;2.28;;;;;34.10;96613.00;;;;8375804;28;21732;-68
2022/08/02 08:48:12;;;;;;;4.70;2.28;;;;;34.40;96609.00;;;;8377417;28;20216;-67
2022/08/02 08:52:16;;;;;;;2.10;2.00;;;;;34.90;96620.00;;;;8390281;28;20311;-68
2022/08/02 08:56:20;;;;;;;1.95;1.90;;;;;35.50;96621.00;;;;8397341;28;20223;-68
2022/08/02 09:00:26;;;;;;;1.98;1.83;;;;;35.90;96622.00;;;;8384604;28;20308;-68
2022/08/02 09:04:30;;;;;;;2.00;1.90;;;;;36.00;96619.00;;;;8385150;28;20327;-68
2022/08/02 09:08:33;;;;;;;2.42;2.22;;;;;36.30;96621.00;;;;8391631;28;20322;-69
2022/08/02 09:12:36;;;;;;;3.70;1.80;;;;;36.70;96627.00;;;;8386584;28;20223;-69
2022/08/02 09:16:42;;;;;;;2.65;1.92;;;;;36.80;96627.00;;;;8395150;28;20249;-68
2022/08/02 09:20:56;;;;;;;1.95;1.85;;;;;37.00;96620.00;;;;8390713;28;20247;-69
2022/08/02 09:25:00;;;;;;;4.30;2.03;;;;;36.90;96620.00;;;;8384706;28;20223;-68
2022/08/02 09:29:03;;;;;;;1.80;1.70;;;;;37.00;96619.00;;;;8401502;28;20218;-68
2022/08/02 09:33:08;;;;;;;19.52;2.95;;;;;37.40;96624.00;;;;8399314;28;20227;-68
2022/08/02 09:37:22;;;;;;;2.28;2.17;;;;;37.50;96626.00;;;;8392027;28;20314;-68
2022/08/02 09:41:27;;;;;;;2.22;2.13;;;;;37.10;96628.00;;;;8392725;28;20565;-68
2022/08/02 09:45:33;;;;;;;2.20;2.00;;;;;37.60;96625.00;;;;8386100;28;20227;-68
2022/08/02 09:49:46;;;;;;;2.10;2.00;;;;;37.20;96620.00;;;;8390184;28;20859;-68
2022/08/02 09:53:56;;;;;;;3.33;2.17;;;;;36.30;96624.00;;;;8384532;28;20894;-68
2022/08/02 09:58:20;;;;;;;2.10;2.00;;;;;35.70;96626.00;;;;8382963;28;20273;-69
2022/08/02 10:02:23;;;;;;;2.13;2.03;;;;;37.00;96625.00;;;;8385468;28;20303;-72
2022/08/02 10:06:28;;;;;;;2.42;1.80;;;;;37.40;96619.00;;;;8380046;28;20231;-72
2022/08/02 10:10:31;;;;;;;3.25;2.03;;;;;38.00;96622.00;;;;8376853;28;20628;-72
2022/08/02 10:14:35;;;;;;;1.60;1.50;;;;;38.30;96620.00;;;;8382011;28;20220;-71
2022/08/02 10:18:39;;;;;;;2.15;1.90;;;;;38.80;96622.00;;;;8380247;28;20281;-71
2022/08/02 10:22:45;;;;;;;2.10;2.00;;;;;38.80;96625.00;;;;8374692;28;20218;-72
2022/08/02 10:26:49;;;;;;;1.90;1.80;;;;;37.50;96632.00;;;;8386925;28;20231;-70
2022/08/02 10:30:55;;;;;;;2.00;1.90;;;;;37.00;96618.00;;;;8390729;28;20306;-70
2022/08/02 10:35:02;;;;;;;2.03;1.90;;;;;37.90;96606.00;;;;8390628;28;20215;-72
2022/08/02 10:39:26;;;;;;;2.33;2.05;;;;;38.40;96607.00;;;;8386470;28;20231;-71
2022/08/02 10:43:45;;;;;;;3.22;1.90;;;;;38.80;96597.00;;;;8404896;28;20231;-72
2022/08/02 10:48:04;;;;;;;2.10;1.90;;;;;39.10;96580.00;;;;8393470;28;20302;-71
2022/08/02 10:52:09;;;;;;;4.10;1.90;;;;;39.40;96580.00;;;;8376022;28;20780;-70
2022/08/02 10:56:17;;;;;;;2.17;1.92;;;;;39.50;96575.00;;;;8382333;28;20865;-71
2022/08/02 11:00:27;;;;;;;2.03;1.92;;;;;39.40;96577.00;;;;8384019;28;20323;-71
2022/08/02 11:04:32;;;;;;;2.17;1.98;;;;;39.60;96576.00;;;;8396426;28;20734;-71
2022/08/02 11:08:35;;;;;;;1.67;1.65;;;;;39.60;96578.00;;;;8390212;28;20239;-71
2022/08/02 11:12:59;;;;;;;1.80;1.70;;;;;39.60;96574.00;;;;8391848;28;20394;-71
2022/08/02 11:17:10;;;;;;;1.88;1.60;;;;;40.00;96565.00;;;;8384271;28;20253;-71
2022/08/02 11:21:24;;;;;;;1.85;1.70;;;;;39.80;96580.00;;;;8366433;28;20359;-71
2022/08/02 11:25:34;;;;;;;1.80;1.70;;;;;40.00;96579.00;;;;8382462;28;20334;-69
2022/08/02 11:29:59;;;;;;;1.40;1.40;;;;;40.30;96577.00;;;;8379413;28;20641;-69
2022/08/02 11:34:04;;;;;;;2.45;1.60;;;;;39.30;96581.00;;;;8365254;28;20228;-70
2022/08/02 11:38:17;;;;;;;1.90;1.80;;;;;37.70;96593.00;;;;8370461;28;20637;-69
2022/08/02 11:42:20;;;;;;;1.48;1.48;;;;;36.90;96595.00;;;;8367517;28;20239;-70
2022/08/02 11:46:25;;;;;;;4.32;1.90;;;;;36.20;96585.00;;;;8371235;28;20242;-70
2022/08/02 11:50:28;;;;;;;2.13;2.00;;;;;35.40;96590.00;;;;8370177;28;21298;-70
2022/08/02 11:54:35;;;;;;;1.85;1.70;;;;;34.80;96574.00;;;;8364971;28;20235;-69
2022/08/02 11:58:38;;;;;;;1.60;1.50;;;;;34.70;96570.00;;;;8377242;28;20244;-69
2022/08/02 12:02:47;;;;;;;1.67;1.42;;;;;34.50;96578.00;;;;8380271;28;20224;-69
2022/08/02 12:06:55;;;;;;;1.70;1.70;;;;;34.40;96567.00;;;;8368481;28;20228;-69
2022/08/02 12:11:01;;;;;;;1.73;1.63;;;;;34.40;96559.00;;;;8374691;28;20294;-69
2022/08/02 12:15:05;;;;;;;2.10;2.00;;;;;34.30;96560.00;;;;8376872;28;20221;-69
2022/08/02 12:19:18;;;;;;;1.90;1.80;;;;;34.10;96554.00;;;;8385020;28;21053;-69
2022/08/02 12:23:21;;;;;;;2.05;1.70;;;;;34.10;96553.00;;;;8384318;28;20602;-69
2022/08/02 12:27:29;;;;;;;2.00;1.90;;;;;34.00;96549.00;;;;8378078;28;20822;-69
2022/08/02 12:31:40;;;;;;;1.90;1.83;;;;;33.80;96542.00;;;;8384408;28;20634;-70
2022/08/02 12:36:01;;;;;;;2.03;1.80;;;;;33.60;96544.00;;;;8380985;28;20212;-68
2022/08/02 12:40:21;;;;;;;2.45;1.75;;;;;33.80;96544.00;;;;8377712;28;20659;-69
2022/08/02 12:44:28;;;;;;;4.72;1.60;;;;;34.10;96549.00;;;;8382822;28;20222;-69
2022/08/02 12:48:34;;;;;;;4.63;1.77;;;;;34.30;96532.00;;;;8391276;28;20838;-69
2022/08/02 12:52:42;;;;;;;1.60;1.50;;;;;34.40;96535.00;;;;8375339;28;20250;-69
2022/08/02 12:56:49;;;;;;;1.88;1.55;;;;;34.20;96529.00;;;;8390074;28;20596;-69
2022/08/02 13:00:53;;;;;;;1.70;1.60;;;;;34.60;96519.00;;;;8395585;28;20231;-69
2022/08/02 13:04:59;;;;;;;1.45;1.45;;;;;34.80;96525.00;;;;8396995;28;20234;-70
2022/08/02 13:09:12;;;;;;;1.55;1.50;;;;;34.40;96519.00;;;;8375388;28;20937;-68
2022/08/02 13:13:15;;;;;;;1.45;1.45;;;;;34.40;96524.00;;;;8399734;28;20585;-69
2022/08/02 13:17:19;;;;;;;3.13;1.40;;;;;34.60;96518.00;;;;8395299;28;20246;-69
2022/08/02 13:21:22;;;;;;;2.70;1.67;;;;;34.80;96519.00;;;;8386719;28;20273;-69
2022/08/02 13:25:47;;;;;;;5.00;1.33;;;;;35.10;96515.00;;;;8378851;28;20227;-68
2022/08/02 13:29:56;;;;;;;1.50;1.50;;;;;35.60;96515.00;;;;8368233;28;20239;-71
2022/08/02 13:34:01;;;;;;;1.70;1.60;;;;;36.50;96512.00;;;;8372105;28;20671;-69
2022/08/02 13:38:05;;;;;;;2.88;1.38;;;;;37.30;96500.00;;;;8368925;28;20234;-70
2022/08/02 13:42:10;;;;;;;1.60;1.50;;;;;37.90;96507.00;;;;8371703;28;20219;-70
2022/08/02 13:46:19;;;;;;;2.72;1.70;;;;;38.50;96495.00;;;;8374031;28;20220;-70
2022/08/02 13:50:31;;;;;;;1.38;1.25;;;;;38.60;96501.00;;;;8375174;28;20224;-70
2022/08/02 13:54:34;;;;;;;2.80;1.58;;;;;39.10;96499.00;;;;8374287;28;20737;-70
2022/08/02 13:58:39;;;;;;;1.50;1.50;;;;;39.60;96495.00;;;;8373328;28;20304;-69
2022/08/02 14:02:42;;;;;;;5.43;1.90;;;;;39.70;96496.00;;;;8366173;28;20232;-70
2022/08/02 14:06:45;;;;;;;1.50;1.40;;;;;39.50;96496.00;;;;8367300;28;20228;-72
2022/08/02 14:10:50;;;;;;;2.53;1.70;;;;;39.60;96491.00;;;;8365902;28;20224;-66
2022/08/02 14:14:55;;;;;;;1.60;1.50;;;;;38.60;96487.00;;;;8366630;28;20247;-70
2022/08/02 14:18:58;;;;;;;1.45;1.35;;;;;38.60;96487.00;;;;8365690;28;20223;-68
2022/08/02 14:23:01;;;;;;;3.03;1.45;;;;;39.20;96477.00;;;;8372090;28;20225;-68
2022/08/02 14:27:04;;;;;;;1.55;1.52;;;;;39.70;96474.00;;;;8365965;28;20220;-67
2022/08/02 14:31:09;;;;;;;1.40;1.30;;;;;40.30;96471.00;;;;8371173;28;20783;-68
2022/08/02 14:35:13;;;;;;;1.25;1.25;;;;;40.60;96474.00;;;;8372587;28;20224;-69
2022/08/02 14:39:17;;;;;;;1.63;1.52;;;;;39.90;96473.00;;;;8374988;28;20240;-68
2022/08/02 14:47:38;;;;;;;2.65;1.80;;;;;38.10;96479.00;;;;8366424;28;20258;-69
2022/08/02 14:51:42;;;;;;;17.10;2.47;;;;;38.60;96474.00;;;;8372786;28;20250;-69
2022/08/02 14:55:45;;;;;;;1.52;1.42;;;;;39.40;96470.00;;;;8366608;28;20694;-69
2022/08/02 14:59:48;;;;;;;4.03;2.40;;;;;40.30;96475.00;;;;8369200;28;20393;-69
2022/08/02 15:03:55;;;;;;;4.68;1.58;;;;;39.40;96463.00;;;;8362696;28;20255;-68
2022/08/02 15:07:58;;;;;;;7.07;1.75;;;;;37.80;96465.00;;;;8360049;28;20591;-67
2022/08/02 15:12:02;;;;;;;1.60;1.50;;;;;36.90;96468.00;;;;8366796;28;20238;-68
2022/08/02 15:16:09;;;;;;;8.45;2.00;;;;;36.40;96468.00;;;;8366704;28;20275;-71
2022/08/02 15:20:13;;;;;;;3.95;1.60;;;;;36.30;96455.00;;;;8376163;28;20231;-69
2022/08/02 15:24:27;;;;;;;2.40;1.40;;;;;36.10;96465.00;;;;8376583;28;20222;-69
2022/08/02 15:28:31;;;;;;;1.50;1.40;;;;;36.10;96457.00;;;;8374977;28;20247;-69
2022/08/02 15:32:34;;;;;;;3.83;1.50;;;;;36.30;96452.00;;;;8379337;28;20230;-68
2022/08/02 15:36:39;;;;;;;1.83;1.60;;;;;36.20;96458.00;;;;8383048;28;20227;-68
2022/08/02 15:40:42;;;;;;;1.88;1.25;;;;;36.40;96449.00;;;;8377825;28;20673;-69
2022/08/02 15:44:46;;;;;;;1.55;1.42;;;;;36.60;96458.00;;;;8380012;28;20251;-68
2022/08/02 15:48:49;;;;;;;1.73;1.58;;;;;36.00;96453.00;;;;8383228;28;20228;-69
2022/08/02 15:52:53;;;;;;;1.75;1.48;;;;;35.40;96462.00;;;;8382143;28;20244;-69
2022/08/02 15:56:57;;;;;;;1.67;1.58;;;;;35.10;96461.00;;;;8382372;28;20704;-69
2022/08/02 16:01:00;;;;;;;1.75;1.60;;;;;34.80;96469.00;;;;8373567;28;20228;-68
2022/08/02 16:05:04;;;;;;;2.72;1.50;;;;;34.60;96462.00;;;;8373392;28;20581;-69
2022/08/02 16:09:17;;;;;;;1.85;1.75;;;;;34.40;96463.00;;;;8368590;28;20269;-68
2022/08/02 16:17:55;;;;;;;1.83;1.73;;;;;34.30;96466.00;;;;8371157;28;20217;-68
2022/08/02 16:21:58;;;;;;;7.45;1.70;;;;;34.30;96463.00;;;;8370720;28;20328;-68
2022/08/02 16:26:03;;;;;;;5.43;1.88;;;;;34.30;96460.00;;;;8372953;28;20304;-69
2022/08/02 16:30:07;;;;;;;7.72;1.85;;;;;34.80;96454.00;;;;8356218;28;20237;-69
2022/08/02 16:34:10;;;;;;;2.35;1.50;;;;;35.00;96453.00;;;;8370341;28;20315;-69
2022/08/02 16:38:16;;;;;;;1.70;1.50;;;;;34.70;96454.00;;;;8367813;28;20233;-69
2022/08/02 16:42:21;;;;;;;2.83;1.50;;;;;34.50;96445.00;;;;8373240;28;20262;-69
2022/08/02 16:46:28;;;;;;;5.35;1.55;;;;;34.40;96451.00;;;;8367002;28;20232;-69
2022/08/02 16:50:31;;;;;;;1.40;1.35;;;;;34.40;96443.00;;;;8372826;28;20239;-69
2022/08/02 16:54:36;;;;;;;1.90;1.50;;;;;34.20;96441.00;;;;8368976;28;20718;-68
2022/08/02 16:58:40;;;;;;;1.63;1.40;;;;;34.00;96437.00;;;;8371043;28;20220;-68
2022/08/02 17:02:49;;;;;;;2.45;1.40;;;;;33.60;96444.00;;;;8370774;28;20235;-69
2022/08/02 17:06:53;;;;;;;1.98;1.85;;;;;33.40;96444.00;;;;8363135;28;20220;-69
2022/08/02 17:11:00;;;;;;;1.67;1.58;;;;;33.20;96444.00;;;;8371262;28;20229;-69
2022/08/02 17:15:09;;;;;;;5.65;1.92;;;;;33.10;96442.00;;;;8372177;28;20247;-71
2022/08/02 17:19:32;;;;;;;2.25;1.52;;;;;33.00;96436.00;;;;8365602;28;20989;-70
2022/08/02 17:23:40;;;;;;;1.73;1.40;;;;;32.90;96443.00;;;;8369362;28;20331;-71
2022/08/02 17:28:04;;;;;;;1.42;1.35;;;;;32.90;96445.00;;;;8374220;28;20226;-71
2022/08/02 17:32:13;;;;;;;5.30;1.80;;;;;33.50;96442.00;;;;8372118;28;20215;-71
2022/08/02 17:36:20;;;;;;;3.60;1.60;;;;;34.20;96448.00;;;;8367866;28;20243;-71
2022/08/02 17:40:24;;;;;;;2.13;1.40;;;;;34.70;96448.00;;;;8367117;28;20315;-70
2022/08/02 17:44:27;;;;;;;3.85;1.70;;;;;35.10;96448.00;;;;8371445;28;20227;-71
2022/08/02 17:53:02;;;;;;;2.47;1.27;;;;;34.40;96448.00;;;;8366678;28;20335;-71
2022/08/02 17:57:06;;;;;;;3.17;1.20;;;;;33.80;96453.00;;;;8348177;28;20226;-70
2022/08/02 18:01:11;;;;;;;2.30;1.50;;;;;33.10;96448.00;;;;8362615;28;20589;-70
2022/08/02 18:05:28;;;;;;;1.95;1.73;;;;;32.40;96452.00;;;;8366578;28;20261;-69
2022/08/02 18:09:44;;;;;;;1.30;1.30;;;;;31.80;96455.00;;;;8366511;28;20228;-70
2022/08/02 18:13:49;;;;;;;1.63;1.52;;;;;31.30;96449.00;;;;8368568;28;20235;-70
2022/08/02 18:17:55;;;;;;;2.35;1.50;;;;;30.70;96453.00;;;;8368329;28;20597;-70
2022/08/02 18:22:02;;;;;;;4.75;1.67;;;;;30.10;96449.00;;;;8374437;28;20222;-70
2022/08/02 18:26:05;;;;;;;1.98;1.50;;;;;29.50;96441.00;;;;8371094;28;20603;-70
2022/08/02 18:30:10;;;;;;;1.73;1.58;;;;;29.00;96451.00;;;;8370788;28;20243;-69
2022/08/02 18:34:14;;;;;;;3.17;1.83;;;;;28.70;96456.00;;;;8375739;28;20562;-70
2022/08/02 18:38:19;;;;;;;3.70;1.52;;;;;28.30;96452.00;;;;8366546;28;20258;-71
2022/08/02 18:42:23;;;;;;;2.53;1.70;;;;;27.90;96455.00;;;;8365190;28;20220;-68
2022/08/02 18:46:26;;;;;;;4.25;1.60;;;;;27.50;96448.00;;;;8367190;28;20219;-68
2022/08/02 18:50:32;;;;;;;3.22;1.40;;;;;27.10;96459.00;;;;8371596;28;20269;-69
2022/08/02 18:54:38;;;;;;;4.45;1.85;;;;;26.70;96464.00;;;;8365194;28;20250;-71
2022/08/02 18:58:42;;;;;;;5.72;1.90;;;;;26.30;96465.00;;;;8367048;28;20968;-71
2022/08/02 19:02:50;;;;;;;10.95;1.92;;;;;25.90;96458.00;;;;8364668;28;20676;-72
2022/08/02 19:06:54;;;;;;;8.38;2.35;;;;;25.60;96472.00;;;;8366199;28;20244;-72
2022/08/02 19:10:58;;;;;;;6.60;1.95;;;;;25.30;96470.00;;;;8369159;28;20231;-71
2022/08/02 19:15:09;;;;;;;7.05;1.90;;;;;25.10;96473.00;;;;8372787;28;20331;-69
2022/08/02 19:19:18;;;;;;;3.33;1.75;;;;;24.90;96478.00;;;;8374186;28;20234;-69
2022/08/02 19:23:21;;;;;;;1.80;1.60;;;;;24.70;96475.00;;;;8372057;28;20307;-72
2022/08/02 19:27:27;;;;;;;2.80;1.63;;;;;24.60;96474.00;;;;8367275;28;20224;-73
2022/08/02 19:31:35;;;;;;;2.05;1.63;;;;;24.50;96473.00;;;;8367695;28;20316;-71
2022/08/02 19:35:58;;;;;;;23.27;2.55;;;;;24.50;96478.00;;;;8365153;28;20226;-75
2022/08/02 19:40:06;;;;;;;2.22;2.13;;;;;24.40;96490.00;;;;8370433;28;20851;-73
2022/08/02 19:44:13;;;;;;;5.25;2.10;;;;;24.30;96487.00;;;;8371310;28;20228;-77
2022/08/02 19:48:30;;;;;;;4.50;1.73;;;;;24.20;96489.00;;;;8362998;28;20251;-73
2022/08/02 19:52:34;;;;;;;5.80;1.80;;;;;24.10;96492.00;;;;8370110;28;20243;-73
2022/08/02 19:56:42;;;;;;;2.65;1.95;;;;;23.90;96495.00;;;;8371740;28;20231;-74
2022/08/02 20:00:48;;;;;;;3.42;1.58;;;;;23.80;96496.00;;;;8371287;28;20234;-75
2022/08/02 20:04:54;;;;;;;2.65;1.55;;;;;23.70;96502.00;;;;8379027;28;20239;-74
2022/08/02 20:09:00;;;;;;;4.72;1.77;;;;;23.60;96504.00;;;;8371982;28;20306;-77
2022/08/02 20:13:04;;;;;;;1.55;1.50;;;;;23.50;96507.00;;;;8373972;28;20219;-75
2022/08/02 20:17:10;;;;;;;2.65;1.90;;;;;23.40;96504.00;;;;8367183;28;20231;-74
2022/08/02 20:21:13;;;;;;;4.53;1.58;;;;;23.30;96496.00;;;;8373483;28;20294;-75
2022/08/02 20:25:36;;;;;;;1.77;1.70;;;;;23.20;96497.00;;;;8377907;28;20284;-75
2022/08/02 20:29:47;;;;;;;1.80;1.60;;;;;23.10;96494.00;;;;8379360;28;20235;-74
2022/08/02 20:33:53;;;;;;;4.13;1.80;;;;;22.90;96490.00;;;;8387217;28;20258;-75
2022/08/02 20:37:58;;;;;;;1.95;1.65;;;;;22.70;96490.00;;;;8364085;28;20220;-75
2022/08/02 20:42:07;;;;;;;1.80;1.70;;;;;22.50;96494.00;;;;8362150;28;20220;-76
2022/08/02 20:46:26;;;;;;;1.80;1.67;;;;;22.40;96486.00;;;;8367125;28;20220;-71
2022/08/02 20:50:51;;;;;;;1.65;1.55;;;;;22.30;96483.00;;;;8378235;28;20232;-70
2022/08/02 20:54:55;;;;;;;2.55;1.60;;;;;22.20;96491.00;;;;8386225;28;20251;-73
2022/08/02 20:58:58;;;;;;;4.00;2.25;;;;;22.10;96490.00;;;;8388720;28;20250;-75